Terminal Aerodrome Forecast
Issued by NWS

Home | Current Version | Previous Version | Text Only | Print | Product List | Glossary On
Versions: 1 2 3 4 5 6 7 8 9 10 11 12 13 14
000
FTUS46 KSGX 291720
TAFCRQ
TAF
KCRQ 291720Z 2918/3018 VRB05KT P6SM SKC
     FM291900 25009KT P6SM SKC
     FM300000 VRB04KT P6SM FEW007
     FM300900 VRB04KT 3SM BR BKN005
     FM301500 VRB04KT 5SM BR BKN008
     FM301600 VRB04KT 6SM BR SCT010=

USA.gov is the U.S. government's official web portal to all federal, state and local government web resources and services.